Time;durP1;ratioP1;P1;durP2;ratioP2;P2;SDS_P1;SDS_P2;PMS_P1;PMS_P2;Temp;Humidity;BMP_temperature;BMP_pressure;BME280_temperature;BME280_humidity;BME280_pressure;Samples;Min_cycle;Max_cycle;Signal;HPM_P1;HPM_P2
2023/01/26 00:01:52;;;;;;;169.55;55.58;;;-1.10;99.90;;;;;;5074390;28;20017;-62
2023/01/26 00:04:18;;;;;;;158.77;51.67;;;-1.10;99.90;;;;;;5074156;28;20020;-62
2023/01/26 00:06:43;;;;;;;156.23;53.33;;;-1.10;99.90;;;;;;5074086;28;20470;-62
2023/01/26 00:09:13;;;;;;;165.95;54.35;;;-1.20;99.90;;;;;;5074247;28;20387;-62
2023/01/26 00:11:39;;;;;;;186.95;58.08;;;-1.20;99.90;;;;;;5074203;28;20077;-62
2023/01/26 00:14:04;;;;;;;189.10;60.67;;;-1.20;99.90;;;;;;5073923;28;20020;-63
2023/01/26 00:16:30;;;;;;;190.07;57.72;;;-1.20;99.90;;;;;;5073618;28;20056;-62
2023/01/26 00:18:56;;;;;;;189.45;58.92;;;-1.20;99.90;;;;;;5073852;28;20052;-62
2023/01/26 00:21:23;;;;;;;196.57;60.15;;;-1.20;99.90;;;;;;5073998;28;20013;-62
2023/01/26 00:23:50;;;;;;;205.57;61.67;;;-1.20;99.90;;;;;;5073801;28;20082;-62
2023/01/26 00:26:18;;;;;;;208.27;61.45;;;-1.20;99.90;;;;;;5073950;28;20473;-63
2023/01/26 00:28:44;;;;;;;201.73;61.85;;;-1.20;99.90;;;;;;5073669;28;20028;-62
2023/01/26 00:31:13;;;;;;;214.40;65.90;;;-1.20;99.90;;;;;;5072444;28;20062;-62
2023/01/26 00:33:39;;;;;;;224.55;62.45;;;-1.20;99.90;;;;;;5073680;28;20398;-62
2023/01/26 00:36:05;;;;;;;219.88;63.55;;;-1.20;99.90;;;;;;5073526;28;20028;-62
2023/01/26 00:38:30;;;;;;;220.35;62.30;;;-1.20;99.90;;;;;;5073427;28;20063;-62
2023/01/26 00:40:56;;;;;;;211.13;62.70;;;-1.20;99.90;;;;;;5073467;28;20444;-62
2023/01/26 00:43:21;;;;;;;224.27;63.25;;;-1.20;99.90;;;;;;5073400;28;20017;-62
2023/01/26 00:45:47;;;;;;;230.02;65.07;;;-1.20;99.90;;;;;;5073472;28;20032;-62
2023/01/26 00:48:13;;;;;;;230.20;65.72;;;-1.20;99.90;;;;;;5073456;28;20051;-63
2023/01/26 00:50:39;;;;;;;229.18;66.38;;;-1.10;99.90;;;;;;5073626;28;20032;-62
2023/01/26 00:53:04;;;;;;;240.43;69.28;;;-1.10;99.90;;;;;;5071938;28;20036;-63
2023/01/26 00:55:31;;;;;;;229.48;67.35;;;-1.10;99.90;;;;;;5073308;28;20075;-62
2023/01/26 00:58:02;;;;;;;223.13;66.75;;;-1.20;99.90;;;;;;5073213;28;20024;-62
2023/01/26 01:00:29;;;;;;;234.50;65.75;;;-1.10;99.90;;;;;;5073256;28;20474;-62
2023/01/26 01:02:55;;;;;;;239.63;68.78;;;-1.10;99.90;;;;;;5073234;28;20055;-62
2023/01/26 01:05:23;;;;;;;234.13;67.25;;;-1.10;99.90;;;;;;5073248;28;20029;-63
2023/01/26 01:07:49;;;;;;;224.00;66.72;;;-1.10;99.90;;;;;;5073204;28;20033;-62
2023/01/26 01:10:14;;;;;;;247.68;69.50;;;-1.10;99.90;;;;;;5073212;28;20024;-62
2023/01/26 01:12:40;;;;;;;242.88;68.53;;;-1.10;99.90;;;;;;5071977;28;20478;-62
2023/01/26 01:15:06;;;;;;;225.57;67.63;;;-1.10;99.90;;;;;;5073087;28;20393;-62
2023/01/26 01:17:32;;;;;;;232.40;70.85;;;-1.10;99.90;;;;;;5072845;28;20048;-62
2023/01/26 01:19:58;;;;;;;228.07;68.07;;;-1.10;99.90;;;;;;5073308;28;20054;-62
2023/01/26 01:22:24;;;;;;;226.63;67.45;;;-1.10;99.90;;;;;;5073045;28;20474;-63
2023/01/26 01:24:49;;;;;;;225.75;67.80;;;-1.10;99.90;;;;;;5073073;28;20021;-63
2023/01/26 01:27:15;;;;;;;241.45;69.35;;;-1.10;99.90;;;;;;5072960;28;20068;-62
2023/01/26 01:29:40;;;;;;;231.85;69.10;;;-1.00;99.90;;;;;;5072994;28;20028;-62
2023/01/26 01:32:06;;;;;;;243.68;70.85;;;-1.00;99.90;;;;;;5073188;28;20382;-62
2023/01/26 01:34:31;;;;;;;243.07;68.63;;;-1.00;99.90;;;;;;5072887;28;20441;-63
2023/01/26 01:36:57;;;;;;;234.95;70.80;;;-1.00;99.90;;;;;;5073035;28;20031;-62
2023/01/26 01:39:22;;;;;;;246.95;73.22;;;-1.00;99.90;;;;;;5072872;28;20029;-62
2023/01/26 01:41:48;;;;;;;240.30;68.65;;;-1.00;99.90;;;;;;5072872;28;20401;-62
2023/01/26 01:44:18;;;;;;;237.30;69.22;;;-1.00;99.90;;;;;;5072876;28;20524;-62
2023/01/26 01:46:47;;;;;;;240.32;69.95;;;-1.00;99.90;;;;;;5073017;28;20154;-63
2023/01/26 01:49:35;;;;;;;253.75;72.45;;;-1.10;99.90;;;;;;5072793;28;20119;-63
2023/01/26 01:52:08;;;;;;;241.60;68.13;;;-1.10;99.90;;;;;;5072699;28;20032;-62
2023/01/26 01:54:37;;;;;;;;;;;-1.00;99.90;;;;;;5073137;28;20026;-62
2023/01/26 01:57:14;;;;;;;232.27;68.70;;;-1.00;99.90;;;;;;5072645;28;19908;-62
2023/01/26 01:59:46;;;;;;;247.18;68.97;;;-1.10;99.90;;;;;;5072643;28;20021;-62
2023/01/26 02:02:13;;;;;;;252.25;71.50;;;-1.00;99.90;;;;;;5072692;28;20012;-62
2023/01/26 02:04:39;;;;;;;246.25;72.13;;;-1.00;99.90;;;;;;5074994;28;20020;-62
2023/01/26 02:07:04;;;;;;;244.80;71.65;;;-1.00;99.90;;;;;;5076318;28;20032;-62
2023/01/26 02:12:24;;;;;;;258.00;71.38;;;-1.00;99.90;;;;;;5076077;28;20091;-63
2023/01/26 02:14:51;;;;;;;250.77;71.38;;;-0.90;99.90;;;;;;5076199;28;20024;-62
2023/01/26 02:17:17;;;;;;;262.60;74.43;;;-0.90;99.90;;;;;;5075897;28;20112;-62
2023/01/26 02:20:13;;;;;;;264.13;76.07;;;-0.90;99.90;;;;;;5076162;28;20104;-62
2023/01/26 02:22:51;;;;;;;261.88;72.13;;;-0.90;99.90;;;;;;5076121;28;20024;-62
2023/01/26 02:25:39;;;;;;;255.30;74.28;;;-0.90;99.90;;;;;;5076072;28;20111;-63
2023/01/26 02:28:05;;;;;;;247.38;72.13;;;-0.90;99.90;;;;;;5075944;28;20020;-62
2023/01/26 02:30:31;;;;;;;264.35;72.45;;;-0.90;99.90;;;;;;5076169;28;20384;-62
2023/01/26 02:32:57;;;;;;;262.30;77.15;;;-0.90;99.90;;;;;;5076133;28;20024;-62
2023/01/26 02:35:23;;;;;;;254.40;71.65;;;-0.90;99.90;;;;;;5076106;28;20432;-63
2023/01/26 02:37:48;;;;;;;237.98;72.60;;;-0.90;99.90;;;;;;5075736;28;20033;-62
2023/01/26 02:40:39;;;;;;;242.25;70.90;;;-0.90;99.90;;;;;;5076048;28;20055;-63
2023/01/26 02:43:05;;;;;;;254.93;71.40;;;-0.90;99.90;;;;;;5075736;28;20482;-62
2023/01/26 02:45:33;;;;;;;240.65;70.38;;;-0.90;99.90;;;;;;5074448;28;20028;-62
2023/01/26 02:48:03;;;;;;;246.27;72.70;;;-0.80;99.90;;;;;;5074021;28;20470;-62
2023/01/26 02:50:29;;;;;;;237.35;72.22;;;-0.80;99.90;;;;;;5075539;28;20032;-62
2023/01/26 02:52:55;;;;;;;246.15;69.88;;;-0.80;99.90;;;;;;5075593;28;20038;-62
2023/01/26 02:55:22;;;;;;;244.23;72.82;;;-0.90;99.90;;;;;;5075748;28;20028;-62
2023/01/26 02:57:49;;;;;;;241.52;70.47;;;-0.80;99.90;;;;;;5075408;28;20029;-63
2023/01/26 03:00:19;;;;;;;236.32;70.82;;;-0.90;99.90;;;;;;5075484;28;20051;-62
2023/01/26 03:02:46;;;;;;;235.43;71.22;;;-0.80;99.90;;;;;;5075485;28;20016;-63
2023/01/26 03:05:11;;;;;;;248.75;70.28;;;-0.80;99.90;;;;;;5074280;28;20036;-62
2023/01/26 03:07:37;;;;;;;240.75;69.35;;;-0.80;99.90;;;;;;5075247;28;20021;-62
2023/01/26 03:10:03;;;;;;;246.75;68.20;;;-0.80;99.90;;;;;;5075239;28;20036;-62
2023/01/26 03:12:29;;;;;;;238.55;70.47;;;-0.80;99.90;;;;;;5075408;28;20052;-62
2023/01/26 03:17:40;;;;;;;240.35;69.72;;;-0.80;99.90;;;;;;5074706;28;20037;-62
2023/01/26 03:28:25;;;;;;;257.73;68.45;;;-0.80;99.90;;;;;;5074691;28;20186;-63
2023/01/26 03:30:54;;;;;;;262.05;72.65;;;-0.80;99.90;;;;;;5075057;28;20059;-62
2023/01/26 03:33:20;;;;;;;242.55;67.72;;;-0.70;99.90;;;;;;5074799;28;20031;-63
2023/01/26 03:35:46;;;;;;;237.13;66.45;;;-0.70;99.90;;;;;;5074677;28;20028;-63
2023/01/26 03:38:12;;;;;;;239.13;69.35;;;-0.70;99.90;;;;;;5074691;28;20513;-62
2023/01/26 03:57:10;;;;;;;235.38;65.18;;;-0.60;99.90;;;;;;5074047;28;20028;-62
2023/01/26 03:59:37;;;;;;;226.07;66.07;;;-0.70;99.90;;;;;;5074186;28;20070;-62
2023/01/26 04:10:26;;;;;;;222.05;65.90;;;-0.60;99.90;;;;;;5073857;28;20025;-63
2023/01/26 04:21:39;;;;;;;228.30;69.10;;;-0.60;99.90;;;;;;5073675;28;20413;-62
2023/01/26 04:23:56;;;;;;;240.75;66.20;;;-0.60;99.90;;;;;;5073615;28;20024;-62
2023/01/26 04:26:23;;;;;;;254.35;69.25;;;-0.60;99.90;;;;;;5073299;28;20474;-63
2023/01/26 04:28:48;;;;;;;270.38;72.55;;;-0.70;99.90;;;;;;5073891;28;20055;-62
2023/01/26 04:31:15;;;;;;;268.05;72.32;;;-0.70;99.90;;;;;;5073757;28;20038;-62
2023/01/26 04:33:41;;;;;;;282.00;73.53;;;-0.70;99.90;;;;;;5073885;28;20501;-62
2023/01/26 04:36:08;;;;;;;300.80;74.60;;;-0.70;99.90;;;;;;5073867;28;20024;-62
2023/01/26 04:38:34;;;;;;;280.10;75.80;;;-0.70;99.90;;;;;;5073482;28;20390;-62
2023/01/26 04:40:59;;;;;;;307.15;77.43;;;-0.70;99.90;;;;;;5073497;28;20025;-62
2023/01/26 04:43:25;;;;;;;290.58;77.95;;;-0.60;99.90;;;;;;5073732;28;20028;-62
2023/01/26 04:48:36;;;;;;;287.23;73.40;;;-0.60;99.90;;;;;;5111157;27;20422;-62
2023/01/26 04:51:04;;;;;;;298.85;75.35;;;-0.70;99.90;;;;;;5109831;28;20429;-62
2023/01/26 04:53:32;;;;;;;300.13;76.55;;;-0.70;99.90;;;;;;5111329;28;20024;-62
2023/01/26 04:55:58;;;;;;;291.55;79.28;;;-0.60;99.90;;;;;;5111038;28;20024;-63
2023/01/26 04:58:23;;;;;;;287.13;73.55;;;-0.60;99.90;;;;;;5110945;28;20081;-62
2023/01/26 05:00:51;;;;;;;282.25;74.72;;;-0.60;99.90;;;;;;5092713;28;20020;-63
2023/01/26 05:03:17;;;;;;;282.90;75.13;;;-0.60;99.90;;;;;;5111080;28;20031;-63
2023/01/26 05:05:42;;;;;;;298.75;73.03;;;-0.60;99.90;;;;;;5110876;28;20020;-63
2023/01/26 05:08:08;;;;;;;308.35;76.55;;;-0.60;99.90;;;;;;5110862;28;20118;-62
2023/01/26 05:10:33;;;;;;;298.42;77.18;;;-0.60;99.90;;;;;;5110720;28;20067;-62
2023/01/26 05:12:59;;;;;;;290.13;75.25;;;-0.60;99.90;;;;;;5110621;28;20020;-63
2023/01/26 05:15:25;;;;;;;298.38;72.30;;;-0.60;99.90;;;;;;5110873;28;20359;-63
2023/01/26 05:17:51;;;;;;;290.75;72.45;;;-0.60;99.90;;;;;;5110569;28;20112;-62
2023/01/26 05:20:16;;;;;;;273.52;72.30;;;-0.50;99.90;;;;;;5110741;28;20063;-64
2023/01/26 05:22:42;;;;;;;290.70;72.05;;;-0.50;99.90;;;;;;5110411;28;20023;-63
2023/01/26 05:25:08;;;;;;;278.92;72.78;;;-0.50;99.90;;;;;;5110661;28;20027;-62
2023/01/26 05:27:34;;;;;;;283.48;75.65;;;-0.50;99.90;;;;;;5109034;28;20031;-63
2023/01/26 05:29:59;;;;;;;278.58;71.15;;;-0.50;99.90;;;;;;5110537;28;20024;-62
2023/01/26 05:32:27;;;;;;;271.83;73.40;;;-0.50;99.90;;;;;;5110183;28;20018;-63
2023/01/26 05:34:53;;;;;;;274.85;73.88;;;-0.50;99.90;;;;;;5110492;28;20028;-62
2023/01/26 05:37:19;;;;;;;278.08;73.25;;;-0.50;99.90;;;;;;5110418;28;20435;-63
2023/01/26 05:39:45;;;;;;;241.35;67.13;;;-0.50;99.90;;;;;;5110242;28;20028;-63
2023/01/26 05:42:11;;;;;;;249.98;69.43;;;-0.50;99.90;;;;;;5110065;28;20020;-63
2023/01/26 05:44:37;;;;;;;240.65;66.60;;;-0.50;99.90;;;;;;5110025;28;20031;-63
2023/01/26 05:47:03;;;;;;;236.55;66.07;;;-0.60;99.90;;;;;;5109678;28;20450;-62
2023/01/26 05:49:29;;;;;;;237.45;66.18;;;-0.50;99.90;;;;;;5109996;28;20024;-63
2023/01/26 05:51:55;;;;;;;233.10;65.60;;;-0.50;99.90;;;;;;5109953;28;20023;-63
2023/01/26 05:54:20;;;;;;;236.13;68.07;;;-0.50;99.90;;;;;;5109847;28;20024;-63
2023/01/26 05:56:46;;;;;;;234.20;66.28;;;-0.50;99.90;;;;;;5110035;28;20470;-63
2023/01/26 05:59:12;;;;;;;225.02;66.60;;;-0.50;99.90;;;;;;5100499;28;20024;-62
2023/01/26 06:01:38;;;;;;;230.23;65.88;;;-0.50;99.90;;;;;;5096091;28;20028;-63
2023/01/26 06:04:04;;;;;;;231.30;64.43;;;-0.50;99.90;;;;;;5096322;28;20032;-63
2023/01/26 06:06:29;;;;;;;228.43;64.97;;;-0.60;99.90;;;;;;5096169;28;20035;-63
2023/01/26 06:08:56;;;;;;;250.95;67.25;;;-0.50;99.90;;;;;;5094714;28;20020;-63
2023/01/26 06:11:21;;;;;;;239.77;65.30;;;-0.50;99.90;;;;;;5096035;28;20020;-63
2023/01/26 06:13:47;;;;;;;228.48;64.47;;;-0.50;99.90;;;;;;5095850;28;20046;-63
2023/01/26 06:16:13;;;;;;;229.02;66.20;;;-0.50;99.90;;;;;;5095975;28;20020;-63
2023/01/26 06:18:38;;;;;;;243.13;63.22;;;-0.40;99.90;;;;;;5095786;28;20466;-63
2023/01/26 06:21:04;;;;;;;235.32;67.35;;;-0.50;99.90;;;;;;5094525;28;20042;-63
2023/01/26 06:23:29;;;;;;;238.68;63.60;;;-0.50;99.90;;;;;;5095703;28;20028;-63
2023/01/26 06:25:59;;;;;;;240.93;66.47;;;-0.50;99.90;;;;;;5094543;28;20019;-63
2023/01/26 06:28:25;;;;;;;246.82;66.68;;;-0.50;99.90;;;;;;5095632;28;20074;-62
2023/01/26 06:30:52;;;;;;;234.40;66.90;;;-0.50;99.90;;;;;;5095704;28;20024;-62
2023/01/26 06:33:17;;;;;;;233.50;64.90;;;-0.50;99.90;;;;;;5094229;28;20027;-63
2023/01/26 06:35:43;;;;;;;244.55;65.65;;;-0.50;99.90;;;;;;5095513;28;20481;-63
2023/01/26 06:38:08;;;;;;;233.98;64.63;;;-0.50;99.90;;;;;;5094213;28;20036;-63
2023/01/26 06:40:34;;;;;;;272.67;67.28;;;-0.50;99.90;;;;;;5095330;28;20039;-63
2023/01/26 06:42:59;;;;;;;235.25;65.43;;;-0.50;99.90;;;;;;5095309;28;20032;-63
2023/01/26 06:45:25;;;;;;;238.60;65.13;;;-0.50;99.90;;;;;;5094362;28;20378;-62
2023/01/26 06:47:51;;;;;;;244.40;64.53;;;-0.50;99.90;;;;;;5095041;28;20051;-63
2023/01/26 06:50:21;;;;;;;247.98;65.00;;;-0.50;99.90;;;;;;5095338;28;20034;-63
2023/01/26 06:52:50;;;;;;;251.73;67.10;;;-0.50;99.90;;;;;;5095218;28;20020;-63
2023/01/26 06:55:21;;;;;;;240.45;64.60;;;-0.50;99.90;;;;;;5095268;28;20016;-62
2023/01/26 06:57:47;;;;;;;238.02;64.97;;;-0.50;99.90;;;;;;5095293;28;20032;-63
2023/01/26 07:00:13;;;;;;;239.40;63.25;;;-0.50;99.90;;;;;;5093736;28;20497;-63
2023/01/26 07:02:38;;;;;;;229.52;64.00;;;-0.40;99.90;;;;;;5094902;28;20040;-63
2023/01/26 07:05:04;;;;;;;232.45;64.03;;;-0.40;99.90;;;;;;5095130;28;20059;-63
2023/01/26 07:07:30;;;;;;;224.15;61.22;;;-0.40;99.90;;;;;;5094730;28;20020;-63
2023/01/26 07:09:55;;;;;;;215.50;60.03;;;-0.40;99.90;;;;;;5092669;28;20058;-62
2023/01/26 07:12:21;;;;;;;216.75;61.50;;;-0.40;99.90;;;;;;5093504;28;20024;-63
2023/01/26 07:14:46;;;;;;;221.48;61.10;;;-0.40;99.90;;;;;;5093595;28;20020;-63
2023/01/26 07:17:12;;;;;;;214.23;60.35;;;-0.40;99.90;;;;;;5094877;28;20043;-62
2023/01/26 07:19:37;;;;;;;206.95;60.42;;;-0.40;99.90;;;;;;5093327;28;20024;-63
2023/01/26 07:22:04;;;;;;;211.82;60.45;;;-0.40;99.90;;;;;;5094672;28;20115;-63
2023/01/26 07:24:29;;;;;;;225.15;62.65;;;-0.40;99.90;;;;;;5094125;28;20035;-63
2023/01/26 07:26:55;;;;;;;211.02;59.22;;;-0.40;99.90;;;;;;5092862;28;20482;-62
2023/01/26 07:29:21;;;;;;;206.23;59.83;;;-0.40;99.90;;;;;;5094431;28;20024;-63
2023/01/26 07:31:47;;;;;;;214.25;62.38;;;-0.40;99.90;;;;;;5094338;28;20066;-63
2023/01/26 07:34:12;;;;;;;213.90;62.72;;;-0.30;99.90;;;;;;5094150;28;20027;-63
2023/01/26 07:36:38;;;;;;;228.02;62.55;;;-0.30;99.90;;;;;;5094096;28;20024;-63
2023/01/26 07:39:05;;;;;;;237.32;65.75;;;-0.30;99.90;;;;;;5093242;28;20089;-63
2023/01/26 07:41:30;;;;;;;256.52;66.20;;;-0.30;99.90;;;;;;5094386;28;20023;-63
2023/01/26 07:43:56;;;;;;;252.50;68.22;;;-0.30;99.90;;;;;;5093157;28;20028;-63
2023/01/26 07:46:22;;;;;;;248.75;66.82;;;-0.30;99.90;;;;;;5093595;28;20485;-63
2023/01/26 07:48:48;;;;;;;261.70;67.68;;;-0.30;99.90;;;;;;5093928;28;20473;-65
2023/01/26 07:51:13;;;;;;;229.57;65.75;;;-0.30;99.90;;;;;;5093824;28;20024;-63
2023/01/26 07:53:41;;;;;;;226.90;61.83;;;-0.30;99.90;;;;;;5093743;28;20039;-63
2023/01/26 07:58:48;;;;;;;217.50;60.90;;;-0.30;99.90;;;;;;5090249;28;20116;-62
2023/01/26 08:01:14;;;;;;;225.10;64.05;;;-0.20;99.90;;;;;;5079006;28;20039;-63
2023/01/26 08:03:40;;;;;;;249.40;65.72;;;-0.30;99.90;;;;;;5070229;28;20017;-62
2023/01/26 08:06:07;;;;;;;232.60;62.85;;;-0.20;99.90;;;;;;5066714;28;20025;-63
2023/01/26 08:08:33;;;;;;;226.82;62.13;;;-0.20;99.90;;;;;;5064126;28;20029;-63
2023/01/26 08:11:00;;;;;;;227.20;63.42;;;-0.20;99.90;;;;;;5064288;28;20044;-65
2023/01/26 08:13:27;;;;;;;232.48;63.13;;;-0.20;99.90;;;;;;5070406;28;20029;-62
2023/01/26 08:15:53;;;;;;;239.63;67.15;;;-0.20;99.90;;;;;;5068123;28;20033;-62
2023/01/26 08:18:19;;;;;;;249.07;66.65;;;-0.10;99.90;;;;;;5050275;28;20404;-66
2023/01/26 08:20:53;;;;;;;250.60;66.32;;;-0.10;99.90;;;;;;5066306;28;20021;-63
2023/01/26 08:23:19;;;;;;;232.32;65.25;;;-0.10;99.90;;;;;;5051292;28;20086;-64
2023/01/26 08:25:46;;;;;;;239.48;64.78;;;-0.10;99.90;;;;;;5069105;28;20028;-66
2023/01/26 08:28:12;;;;;;;235.40;67.05;;;-0.10;99.90;;;;;;5068798;28;20044;-63
2023/01/26 08:30:38;;;;;;;232.75;63.67;;;-0.10;99.90;;;;;;5063261;28;20527;-63
2023/01/26 08:33:04;;;;;;;231.70;64.28;;;0.00;99.90;;;;;;5065626;28;20024;-67
2023/01/26 08:35:31;;;;;;;213.18;62.20;;;-0.10;99.90;;;;;;5064802;28;20474;-66
2023/01/26 08:37:57;;;;;;;217.77;62.83;;;-0.10;99.90;;;;;;5072939;28;20039;-65
2023/01/26 08:40:23;;;;;;;221.57;60.20;;;-0.10;99.90;;;;;;5076573;28;20016;-66
2023/01/26 08:42:50;;;;;;;230.18;62.80;;;0.00;99.90;;;;;;5063766;28;20029;-68
2023/01/26 08:45:15;;;;;;;222.00;62.58;;;0.00;99.90;;;;;;5049941;28;20049;-65
2023/01/26 08:47:41;;;;;;;221.90;62.55;;;0.10;99.90;;;;;;5049518;28;20387;-66
2023/01/26 08:50:07;;;;;;;227.00;61.20;;;0.00;99.90;;;;;;5055121;28;20095;-65
2023/01/26 08:52:33;;;;;;;214.27;60.25;;;0.00;99.90;;;;;;5069087;28;20070;-67
2023/01/26 08:54:59;;;;;;;218.07;59.08;;;0.00;99.90;;;;;;5061749;28;20044;-65
2023/01/26 08:57:25;;;;;;;227.15;62.80;;;0.00;99.90;;;;;;5071131;28;20132;-62
2023/01/26 08:59:51;;;;;;;216.35;62.28;;;0.00;99.90;;;;;;5054519;28;20031;-64
2023/01/26 09:02:17;;;;;;;222.05;61.15;;;0.00;99.90;;;;;;5068598;28;20037;-64
2023/01/26 09:04:42;;;;;;;214.30;58.20;;;0.10;99.90;;;;;;5065455;28;20021;-64
2023/01/26 09:07:08;;;;;;;208.07;55.33;;;0.10;99.90;;;;;;5068730;28;20478;-65
2023/01/26 09:09:34;;;;;;;190.50;54.05;;;0.10;99.90;;;;;;5058333;28;20494;-65
2023/01/26 09:12:03;;;;;;;199.35;55.35;;;0.20;99.90;;;;;;5049632;28;20399;-64
2023/01/26 09:14:29;;;;;;;209.63;60.22;;;0.20;99.90;;;;;;5049147;28;20025;-64
2023/01/26 09:16:54;;;;;;;210.57;57.22;;;0.20;99.90;;;;;;5057465;28;20478;-64
2023/01/26 09:19:20;;;;;;;197.23;56.45;;;0.30;99.90;;;;;;5053506;28;20033;-65
2023/01/26 09:21:46;;;;;;;192.27;52.70;;;0.30;99.90;;;;;;5054197;28;20025;-65
2023/01/26 09:24:11;;;;;;;181.90;53.63;;;0.40;99.90;;;;;;5054553;28;20075;-65
2023/01/26 09:26:37;;;;;;;176.57;50.08;;;0.40;99.90;;;;;;5054803;28;20036;-65
2023/01/26 09:29:02;;;;;;;165.68;50.33;;;0.40;99.90;;;;;;5054368;28;20023;-66
2023/01/26 09:31:28;;;;;;;171.63;49.75;;;0.40;99.90;;;;;;5055205;28;20060;-65
2023/01/26 09:33:54;;;;;;;173.55;51.78;;;0.40;99.90;;;;;;5064558;28;20048;-65
2023/01/26 09:36:20;;;;;;;156.75;48.47;;;0.40;99.90;;;;;;5049173;28;20112;-67
2023/01/26 09:38:45;;;;;;;171.55;50.35;;;0.50;99.90;;;;;;5036184;28;20033;-65
2023/01/26 09:43:56;;;;;;;162.02;47.53;;;0.40;99.90;;;;;;5070247;28;20427;-64
2023/01/26 09:47:02;;;;;;;162.98;46.97;;;0.30;99.90;;;;;;5052161;28;20033;-65
2023/01/26 09:49:53;;;;;;;148.10;44.03;;;0.30;99.90;;;;;;5059161;28;20039;-64
2023/01/26 09:52:26;;;;;;;163.80;47.58;;;0.40;99.90;;;;;;5050301;28;20430;-64
2023/01/26 09:54:56;;;;;;;164.82;45.50;;;0.30;99.90;;;;;;5053703;28;20051;-64
2023/01/26 09:57:54;;;;;;;167.00;52.78;;;0.30;99.90;;;;;;5070128;28;20021;-65
2023/01/26 10:00:49;;;;;;;143.15;43.40;;;0.40;99.90;;;;;;5065339;28;20525;-65
2023/01/26 10:06:20;;;;;;;126.75;40.30;;;0.40;99.90;;;;;;5109622;27;20461;-65
2023/01/26 10:08:46;;;;;;;138.00;39.55;;;0.40;99.90;;;;;;5096400;28;20101;-66
2023/01/26 10:11:38;;;;;;;138.10;41.88;;;0.50;99.90;;;;;;5092189;28;20050;-65
2023/01/26 10:14:17;;;;;;;136.68;40.08;;;0.50;99.90;;;;;;5096019;28;20512;-65
2023/01/26 10:16:47;;;;;;;129.88;39.90;;;0.50;99.90;;;;;;5111161;28;20095;-65
2023/01/26 10:19:27;;;;;;;132.88;38.70;;;0.50;99.90;;;;;;5106218;28;20456;-64
2023/01/26 10:21:58;;;;;;;132.38;39.97;;;0.50;99.90;;;;;;5090671;28;20020;-64
2023/01/26 10:24:24;;;;;;;131.38;38.75;;;0.50;99.90;;;;;;5098434;28;20059;-65
2023/01/26 10:26:54;;;;;;;129.25;38.70;;;0.50;99.90;;;;;;5109846;28;20050;-65
2023/01/26 10:29:21;;;;;;;124.50;37.60;;;0.40;99.90;;;;;;5093611;28;20393;-65
2023/01/26 10:31:46;;;;;;;126.38;38.67;;;0.50;99.90;;;;;;5108386;28;20448;-66
2023/01/26 10:34:16;;;;;;;123.50;38.97;;;0.50;99.90;;;;;;5107060;28;20119;-66
2023/01/26 10:36:45;;;;;;;126.18;37.70;;;0.50;99.90;;;;;;5090016;28;20032;-65
2023/01/26 10:39:14;;;;;;;117.82;36.97;;;0.60;99.90;;;;;;5107715;28;20106;-65
2023/01/26 10:41:39;;;;;;;110.28;34.00;;;0.70;99.90;;;;;;5110217;28;20474;-65
2023/01/26 10:44:33;;;;;;;114.53;36.05;;;0.70;99.90;;;;;;5107771;28;20026;-66
2023/01/26 10:47:12;;;;;;;119.50;36.30;;;0.70;99.90;;;;;;5089778;28;20020;-66
2023/01/26 10:49:38;;;;;;;111.55;36.88;;;0.80;99.90;;;;;;5108372;28;20028;-66
2023/01/26 10:52:07;;;;;;;128.25;42.17;;;0.80;99.90;;;;;;5103678;28;20412;-66
2023/01/26 10:54:35;;;;;;;115.50;36.78;;;0.90;99.90;;;;;;5106926;28;20043;-66
2023/01/26 10:57:12;;;;;;;106.55;35.28;;;0.90;99.90;;;;;;5104018;28;20047;-66
2023/01/26 10:59:48;;;;;;;107.80;34.47;;;1.00;99.90;;;;;;5102061;28;20085;-66
2023/01/26 11:07:45;;;;;;;97.07;31.58;;;0.90;99.90;;;;;;5085956;28;20402;-65
2023/01/26 11:16:16;;;;;;;91.55;31.38;;;1.00;99.90;;;;;;5100699;27;20902;-66
2023/01/26 11:19:03;;;;;;;87.30;31.58;;;1.00;99.90;;;;;;5084039;28;20028;-64
2023/01/26 11:21:36;;;;;;;84.20;30.63;;;1.00;99.90;;;;;;5086409;28;20085;-64
2023/01/26 11:24:19;;;;;;;85.82;29.80;;;1.00;99.90;;;;;;5088960;28;20448;-65
2023/01/26 11:27:14;;;;;;;83.50;28.92;;;1.00;99.90;;;;;;5088396;28;20037;-64
2023/01/26 11:29:56;;;;;;;93.30;31.38;;;0.90;99.90;;;;;;5089974;28;20031;-65
2023/01/26 11:32:47;;;;;;;83.07;28.63;;;1.00;99.90;;;;;;5107994;28;20028;-65
2023/01/26 11:35:41;;;;;;;74.03;26.88;;;1.10;99.90;;;;;;5103288;28;20145;-67
2023/01/26 11:41:21;;;;;;;77.07;26.10;;;1.10;99.90;;;;;;5050299;28;20423;-63
2023/01/26 11:44:01;;;;;;;73.63;27.42;;;1.10;99.90;;;;;;5042830;28;20037;-65
2023/01/26 11:46:54;;;;;;;70.97;26.98;;;1.10;99.90;;;;;;5059606;28;20039;-65
2023/01/26 11:49:36;;;;;;;72.00;25.80;;;1.10;99.90;;;;;;5049254;28;20095;-65
2023/01/26 11:55:04;;;;;;;67.75;25.98;;;1.10;99.90;;;;;;5150535;27;20770;-64
2023/01/26 11:57:50;;;;;;;64.85;23.65;;;1.10;99.90;;;;;;5132014;27;20027;-65
2023/01/26 12:00:22;;;;;;;63.35;23.90;;;1.10;99.90;;;;;;5110422;28;20035;-65
2023/01/26 12:02:58;;;;;;;65.00;24.40;;;1.00;99.90;;;;;;5114362;27;21436;-67
2023/01/26 12:05:29;;;;;;;69.75;24.20;;;1.10;99.90;;;;;;5115583;27;20023;-67
2023/01/26 12:08:01;;;;;;;64.55;23.98;;;1.10;99.90;;;;;;5112241;28;20465;-67
2023/01/26 12:10:50;;;;;;;66.60;23.70;;;1.10;99.90;;;;;;5113458;27;20027;-67
2023/01/26 12:13:35;;;;;;;55.88;21.13;;;1.10;99.90;;;;;;5126064;28;20794;-67
2023/01/26 12:16:08;;;;;;;54.72;21.45;;;1.10;99.90;;;;;;5120550;27;20042;-67
2023/01/26 12:18:40;;;;;;;58.50;21.80;;;1.10;99.90;;;;;;5096213;28;20023;-67
2023/01/26 12:21:10;;;;;;;48.38;19.25;;;1.10;99.90;;;;;;5132877;27;20107;-67
2023/01/26 12:23:57;;;;;;;55.08;19.27;;;1.20;99.90;;;;;;5122289;28;20059;-67
2023/01/26 12:26:27;;;;;;;46.60;17.17;;;1.10;99.90;;;;;;5138677;27;20011;-67
2023/01/26 12:29:10;;;;;;;45.17;16.80;;;1.10;99.90;;;;;;5116471;27;20038;-67
2023/01/26 12:32:01;;;;;;;29.30;12.33;;;1.10;99.90;;;;;;5092935;28;20031;-67
2023/01/26 12:34:29;;;;;;;42.30;15.35;;;1.10;99.90;;;;;;5110070;28;20561;-67
2023/01/26 12:37:30;;;;;;;33.63;14.70;;;1.10;99.90;;;;;;5092409;27;20477;-67
2023/01/26 12:40:35;;;;;;;41.97;15.50;;;1.10;99.90;;;;;;5109806;28;20047;-67
2023/01/26 12:43:40;;;;;;;39.40;15.27;;;1.10;99.90;;;;;;5117591;27;20533;-67
2023/01/26 12:46:07;;;;;;;41.15;17.15;;;1.20;99.90;;;;;;5120168;27;20488;-67
2023/01/26 12:48:42;;;;;;;38.97;16.20;;;1.20;99.90;;;;;;5129016;27;20055;-67
2023/01/26 12:51:13;;;;;;;40.75;16.00;;;1.20;99.90;;;;;;5145600;27;20467;-67
2023/01/26 12:53:57;;;;;;;41.63;15.98;;;1.20;99.90;;;;;;5148064;27;20050;-67
2023/01/26 12:56:35;;;;;;;39.90;15.90;;;1.30;99.90;;;;;;5127309;27;20088;-66
2023/01/26 12:59:11;;;;;;;40.33;16.80;;;1.30;99.90;;;;;;5144493;27;20022;-65
2023/01/26 13:01:40;;;;;;;41.00;15.65;;;1.20;99.90;;;;;;5130056;27;20027;-65
2023/01/26 13:04:10;;;;;;;41.13;16.15;;;1.20;99.90;;;;;;5135767;27;20027;-65
2023/01/26 13:06:36;;;;;;;45.67;17.27;;;1.30;99.90;;;;;;5134918;27;20468;-66
2023/01/26 13:09:25;;;;;;;40.65;16.90;;;1.20;99.90;;;;;;5136907;27;20019;-65
2023/01/26 13:11:53;;;;;;;42.78;17.15;;;1.30;99.90;;;;;;5136725;27;20496;-65
2023/01/26 13:14:44;;;;;;;44.38;18.45;;;1.30;99.90;;;;;;5114764;27;20406;-64
2023/01/26 13:19:58;;;;;;;39.63;16.65;;;1.30;99.90;;;;;;5111046;27;20404;-64
2023/01/26 13:27:58;;;;;;;35.63;15.32;;;1.30;99.90;;;;;;5111161;27;20877;-63
2023/01/26 13:30:31;;;;;;;38.38;16.00;;;1.40;99.90;;;;;;5111267;28;20088;-64
2023/01/26 13:33:09;;;;;;;;;;;1.30;99.90;;;;;;5111393;28;20024;-63
2023/01/26 13:35:35;;;;;;;34.38;14.90;;;1.30;99.90;;;;;;5090572;28;19904;-63
2023/01/26 13:38:10;;;;;;;38.30;16.23;;;1.30;99.90;;;;;;5090633;28;20440;-63
2023/01/26 13:40:40;;;;;;;41.92;16.10;;;1.30;99.90;;;;;;5094630;28;20020;-64
2023/01/26 13:43:37;;;;;;;37.92;16.80;;;1.40;99.90;;;;;;5098575;28;20070;-64
2023/01/26 13:46:10;;;;;;;32.22;14.77;;;1.40;99.90;;;;;;5110305;28;20493;-64
2023/01/26 13:51:25;;;;;;;37.17;15.02;;;1.40;99.90;;;;;;5090439;28;20768;-63
2023/01/26 13:54:10;;;;;;;33.70;15.38;;;1.40;99.90;;;;;;5090837;28;20077;-64
2023/01/26 13:56:39;;;;;;;37.30;14.80;;;1.40;99.90;;;;;;5090526;28;20031;-64
2023/01/26 13:59:14;;;;;;;34.53;14.65;;;1.50;99.90;;;;;;5069418;28;20471;-64
2023/01/26 14:01:49;;;;;;;31.38;14.10;;;1.50;99.90;;;;;;5069204;28;20033;-64
2023/01/26 14:04:18;;;;;;;34.95;15.82;;;1.50;99.90;;;;;;5066787;28;20490;-64